sensor_id;sensor_type;location;lat;lon;timestamp;temperature;humidity
44435;DHT22;30138;20.964;105.830;2023-08-06T00:03:30;27.70;97.80
44435;DHT22;30138;20.964;105.830;2023-08-06T00:08:37;27.70;98.00
44435;DHT22;30138;20.964;105.830;2023-08-06T00:13:44;27.70;98.30
44435;DHT22;30138;20.964;105.830;2023-08-06T00:18:53;27.70;98.40
44435;DHT22;30138;20.964;105.830;2023-08-06T00:23:59;27.70;98.60
44435;DHT22;30138;20.964;105.830;2023-08-06T00:29:06;27.70;98.80
44435;DHT22;30138;20.964;105.830;2023-08-06T00:34:15;27.70;99.10
44435;DHT22;30138;20.964;105.830;2023-08-06T00:39:22;27.70;99.20
44435;DHT22;30138;20.964;105.830;2023-08-06T00:44:29;27.70;99.30
44435;DHT22;30138;20.964;105.830;2023-08-06T00:49:39;27.70;99.30
44435;DHT22;30138;20.964;105.830;2023-08-06T00:54:46;27.80;99.50
44435;DHT22;30138;20.964;105.830;2023-08-06T00:59:54;27.80;99.60
44435;DHT22;30138;20.964;105.830;2023-08-06T01:05:04;27.90;99.80
44435;DHT22;30138;20.964;105.830;2023-08-06T01:10:23;27.80;99.80
44435;DHT22;30138;20.964;105.830;2023-08-06T01:15:35;27.80;99.90
44435;DHT22;30138;20.964;105.830;2023-08-06T01:20:46;27.90;99.90
44435;DHT22;30138;20.964;105.830;2023-08-06T01:26:00;27.90;99.90
44435;DHT22;30138;20.964;105.830;2023-08-06T01:31:18;27.90;99.90
44435;DHT22;30138;20.964;105.830;2023-08-06T01:36:31;27.90;99.90
44435;DHT22;30138;20.964;105.830;2023-08-06T01:41:39;27.90;99.90
44435;DHT22;30138;20.964;105.830;2023-08-06T01:46:46;27.90;99.90
44435;DHT22;30138;20.964;105.830;2023-08-06T01:51:55;28.00;99.90
44435;DHT22;30138;20.964;105.830;2023-08-06T01:57:03;28.00;99.90
44435;DHT22;30138;20.964;105.830;2023-08-06T02:02:10;28.00;99.90
44435;DHT22;30138;20.964;105.830;2023-08-06T02:07:19;28.00;99.90
44435;DHT22;30138;20.964;105.830;2023-08-06T02:12:26;28.00;99.90
44435;DHT22;30138;20.964;105.830;2023-08-06T02:17:34;28.00;99.90
44435;DHT22;30138;20.964;105.830;2023-08-06T02:22:42;28.10;99.90
44435;DHT22;30138;20.964;105.830;2023-08-06T02:27:49;28.10;99.90
44435;DHT22;30138;20.964;105.830;2023-08-06T02:32:57;28.10;99.90
44435;DHT22;30138;20.964;105.830;2023-08-06T02:38:06;28.10;99.90
44435;DHT22;30138;20.964;105.830;2023-08-06T02:43:14;28.10;99.90
44435;DHT22;30138;20.964;105.830;2023-08-06T02:48:20;28.20;99.90
44435;DHT22;30138;20.964;105.830;2023-08-06T02:53:30;28.20;99.90
44435;DHT22;30138;20.964;105.830;2023-08-06T02:58:42;28.20;99.90
44435;DHT22;30138;20.964;105.830;2023-08-06T03:04:04;28.20;99.90
44435;DHT22;30138;20.964;105.830;2023-08-06T03:09:18;28.20;99.90
44435;DHT22;30138;20.964;105.830;2023-08-06T03:14:26;28.30;99.90
44435;DHT22;30138;20.964;105.830;2023-08-06T03:19:34;28.30;99.90
44435;DHT22;30138;20.964;105.830;2023-08-06T03:24:44;28.30;99.90
44435;DHT22;30138;20.964;105.830;2023-08-06T03:29:51;28.30;99.90
44435;DHT22;30138;20.964;105.830;2023-08-06T03:35:02;28.30;99.90
44435;DHT22;30138;20.964;105.830;2023-08-06T03:40:12;28.40;99.90
44435;DHT22;30138;20.964;105.830;2023-08-06T03:45:19;28.40;99.90
44435;DHT22;30138;20.964;105.830;2023-08-06T03:50:26;28.40;99.90
44435;DHT22;30138;20.964;105.830;2023-08-06T03:55:35;28.40;99.90
44435;DHT22;30138;20.964;105.830;2023-08-06T04:00:42;28.40;99.90
44435;DHT22;30138;20.964;105.830;2023-08-06T04:05:50;28.50;99.90
44435;DHT22;30138;20.964;105.830;2023-08-06T04:11:00;28.50;99.90
44435;DHT22;30138;20.964;105.830;2023-08-06T04:16:08;28.50;99.90
44435;DHT22;30138;20.964;105.830;2023-08-06T04:21:16;28.50;99.90
44435;DHT22;30138;20.964;105.830;2023-08-06T04:26:25;28.60;99.90
44435;DHT22;30138;20.964;105.830;2023-08-06T04:31:34;28.60;99.90
44435;DHT22;30138;20.964;105.830;2023-08-06T04:36:41;28.60;99.90
44435;DHT22;30138;20.964;105.830;2023-08-06T04:41:51;28.60;99.90
44435;DHT22;30138;20.964;105.830;2023-08-06T04:46:57;28.60;99.90
44435;DHT22;30138;20.964;105.830;2023-08-06T04:52:05;28.70;99.90
44435;DHT22;30138;20.964;105.830;2023-08-06T04:57:14;28.60;99.90
44435;DHT22;30138;20.964;105.830;2023-08-06T05:02:21;28.70;99.90
44435;DHT22;30138;20.964;105.830;2023-08-06T05:07:32;28.70;99.90
44435;DHT22;30138;20.964;105.830;2023-08-06T05:12:40;28.70;99.90
44435;DHT22;30138;20.964;105.830;2023-08-06T05:17:47;28.80;99.90
44435;DHT22;30138;20.964;105.830;2023-08-06T05:22:55;28.80;99.90
44435;DHT22;30138;20.964;105.830;2023-08-06T05:28:04;28.80;99.90
44435;DHT22;30138;20.964;105.830;2023-08-06T05:33:11;28.80;99.90
44435;DHT22;30138;20.964;105.830;2023-08-06T05:38:19;28.80;99.90
44435;DHT22;30138;20.964;105.830;2023-08-06T05:43:27;28.80;99.90
44435;DHT22;30138;20.964;105.830;2023-08-06T05:48:34;28.90;99.90
44435;DHT22;30138;20.964;105.830;2023-08-06T05:53:41;28.90;99.90
44435;DHT22;30138;20.964;105.830;2023-08-06T05:58:51;28.90;99.90
44435;DHT22;30138;20.964;105.830;2023-08-06T06:03:58;29.00;99.90
44435;DHT22;30138;20.964;105.830;2023-08-06T06:09:05;29.00;99.90
44435;DHT22;30138;20.964;105.830;2023-08-06T06:14:14;29.00;99.90
44435;DHT22;30138;20.964;105.830;2023-08-06T06:19:21;29.00;99.90
44435;DHT22;30138;20.964;105.830;2023-08-06T06:24:28;29.10;99.90
44435;DHT22;30138;20.964;105.830;2023-08-06T06:29:37;29.00;99.90
44435;DHT22;30138;20.964;105.830;2023-08-06T06:34:45;28.80;95.40
44435;DHT22;30138;20.964;105.830;2023-08-06T06:39:51;28.60;96.20
44435;DHT22;30138;20.964;105.830;2023-08-06T06:45:01;28.40;90.00
44435;DHT22;30138;20.964;105.830;2023-08-06T06:50:09;28.40;91.40
44435;DHT22;30138;20.964;105.830;2023-08-06T06:55:16;28.20;85.00
44435;DHT22;30138;20.964;105.830;2023-08-06T07:00:25;28.00;88.30
44435;DHT22;30138;20.964;105.830;2023-08-06T07:05:32;27.90;81.90
44435;DHT22;30138;20.964;105.830;2023-08-06T07:10:40;27.80;83.20
44435;DHT22;30138;20.964;105.830;2023-08-06T07:15:49;27.70;81.20
44435;DHT22;30138;20.964;105.830;2023-08-06T07:20:56;27.70;81.90
44435;DHT22;30138;20.964;105.830;2023-08-06T07:26:04;27.60;79.00
44435;DHT22;30138;20.964;105.830;2023-08-06T07:31:15;27.60;78.80
44435;DHT22;30138;20.964;105.830;2023-08-06T07:36:22;27.40;77.50
44435;DHT22;30138;20.964;105.830;2023-08-06T07:41:30;27.40;76.40
44435;DHT22;30138;20.964;105.830;2023-08-06T07:46:39;27.30;76.80
44435;DHT22;30138;20.964;105.830;2023-08-06T07:51:46;27.30;74.80
44435;DHT22;30138;20.964;105.830;2023-08-06T07:56:54;27.30;76.10
44435;DHT22;30138;20.964;105.830;2023-08-06T08:02:03;27.20;73.20
44435;DHT22;30138;20.964;105.830;2023-08-06T08:07:11;27.20;75.50
44435;DHT22;30138;20.964;105.830;2023-08-06T08:12:19;27.20;71.40
44435;DHT22;30138;20.964;105.830;2023-08-06T08:17:29;27.10;76.50
44435;DHT22;30138;20.964;105.830;2023-08-06T08:22:37;27.20;77.50
44435;DHT22;30138;20.964;105.830;2023-08-06T08:27:44;27.20;84.80
44435;DHT22;30138;20.964;105.830;2023-08-06T08:32:53;27.20;76.60
44435;DHT22;30138;20.964;105.830;2023-08-06T08:38:00;27.10;80.10
44435;DHT22;30138;20.964;105.830;2023-08-06T08:43:07;27.00;72.60
44435;DHT22;30138;20.964;105.830;2023-08-06T08:48:17;27.00;78.50
44435;DHT22;30138;20.964;105.830;2023-08-06T08:53:25;27.00;73.80
44435;DHT22;30138;20.964;105.830;2023-08-06T08:58:33;27.00;78.70
44435;DHT22;30138;20.964;105.830;2023-08-06T09:03:42;27.00;70.70
44435;DHT22;30138;20.964;105.830;2023-08-06T09:08:54;26.90;76.20
44435;DHT22;30138;20.964;105.830;2023-08-06T09:14:06;26.90;68.90
44435;DHT22;30138;20.964;105.830;2023-08-06T09:19:15;26.90;74.50
44435;DHT22;30138;20.964;105.830;2023-08-06T09:24:22;26.80;67.70
44435;DHT22;30138;20.964;105.830;2023-08-06T09:29:32;26.80;73.20
44435;DHT22;30138;20.964;105.830;2023-08-06T09:34:42;26.80;67.20
44435;DHT22;30138;20.964;105.830;2023-08-06T09:39:49;26.80;72.30
44435;DHT22;30138;20.964;105.830;2023-08-06T09:45:07;26.70;66.80
44435;DHT22;30138;20.964;105.830;2023-08-06T09:50:18;26.70;71.10
44435;DHT22;30138;20.964;105.830;2023-08-06T09:55:29;26.70;66.50
44435;DHT22;30138;20.964;105.830;2023-08-06T10:00:36;26.70;69.20
44435;DHT22;30138;20.964;105.830;2023-08-06T10:05:45;26.70;64.90
44435;DHT22;30138;20.964;105.830;2023-08-06T10:10:52;26.70;67.30
44435;DHT22;30138;20.964;105.830;2023-08-06T10:16:04;26.60;67.60
44435;DHT22;30138;20.964;105.830;2023-08-06T10:21:13;26.70;75.10
44435;DHT22;30138;20.964;105.830;2023-08-06T10:26:21;26.90;77.60
44435;DHT22;30138;20.964;105.830;2023-08-06T10:31:59;27.20;79.40
44435;DHT22;30138;20.964;105.830;2023-08-06T10:37:10;27.30;81.10
44435;DHT22;30138;20.964;105.830;2023-08-06T10:42:27;27.50;82.40
44435;DHT22;30138;20.964;105.830;2023-08-06T10:47:39;27.60;83.80
44435;DHT22;30138;20.964;105.830;2023-08-06T10:52:49;27.80;85.00
44435;DHT22;30138;20.964;105.830;2023-08-06T10:58:06;27.90;86.20
44435;DHT22;30138;20.964;105.830;2023-08-06T11:03:14;28.00;87.40
44435;DHT22;30138;20.964;105.830;2023-08-06T11:08:33;28.10;88.50
44435;DHT22;30138;20.964;105.830;2023-08-06T11:13:40;28.20;89.80
44435;DHT22;30138;20.964;105.830;2023-08-06T11:18:49;28.30;90.60
44435;DHT22;30138;20.964;105.830;2023-08-06T11:23:59;28.30;91.30
44435;DHT22;30138;20.964;105.830;2023-08-06T11:29:09;28.40;91.80
44435;DHT22;30138;20.964;105.830;2023-08-06T11:34:16;28.50;92.20
44435;DHT22;30138;20.964;105.830;2023-08-06T11:39:24;28.50;92.60
44435;DHT22;30138;20.964;105.830;2023-08-06T11:44:33;28.60;93.00
44435;DHT22;30138;20.964;105.830;2023-08-06T11:49:42;28.60;93.20
44435;DHT22;30138;20.964;105.830;2023-08-06T11:55:03;28.70;93.60
44435;DHT22;30138;20.964;105.830;2023-08-06T12:00:14;28.80;94.00
44435;DHT22;30138;20.964;105.830;2023-08-06T12:05:23;28.80;94.50
44435;DHT22;30138;20.964;105.830;2023-08-06T12:10:37;28.80;94.80
44435;DHT22;30138;20.964;105.830;2023-08-06T12:15:45;28.80;95.00
44435;DHT22;30138;20.964;105.830;2023-08-06T12:20:53;28.80;95.20
44435;DHT22;30138;20.964;105.830;2023-08-06T12:26:02;28.80;95.50
44435;DHT22;30138;20.964;105.830;2023-08-06T12:31:09;28.80;95.90
44435;DHT22;30138;20.964;105.830;2023-08-06T12:36:17;28.90;99.90
44435;DHT22;30138;20.964;105.830;2023-08-06T12:41:27;28.90;99.90
44435;DHT22;30138;20.964;105.830;2023-08-06T12:46:35;29.00;99.90
44435;DHT22;30138;20.964;105.830;2023-08-06T12:51:43;28.90;99.90
44435;DHT22;30138;20.964;105.830;2023-08-06T12:56:57;28.70;93.40
44435;DHT22;30138;20.964;105.830;2023-08-06T13:02:05;28.60;93.40
44435;DHT22;30138;20.964;105.830;2023-08-06T13:07:12;28.40;90.20
44435;DHT22;30138;20.964;105.830;2023-08-06T13:12:20;28.30;90.60
44435;DHT22;30138;20.964;105.830;2023-08-06T13:17:28;28.00;84.10
44435;DHT22;30138;20.964;105.830;2023-08-06T13:22:35;28.00;86.20
44435;DHT22;30138;20.964;105.830;2023-08-06T13:27:46;27.80;83.60
44435;DHT22;30138;20.964;105.830;2023-08-06T13:32:53;27.80;82.10
44435;DHT22;30138;20.964;105.830;2023-08-06T13:38:05;27.60;79.10
44435;DHT22;30138;20.964;105.830;2023-08-06T13:43:15;27.60;78.60
44435;DHT22;30138;20.964;105.830;2023-08-06T13:48:22;27.50;86.50
44435;DHT22;30138;20.964;105.830;2023-08-06T13:53:30;27.40;81.50
44435;DHT22;30138;20.964;105.830;2023-08-06T13:58:50;27.30;80.20
44435;DHT22;30138;20.964;105.830;2023-08-06T14:03:58;27.30;75.50
44435;DHT22;30138;20.964;105.830;2023-08-06T14:09:05;27.20;77.20
44435;DHT22;30138;20.964;105.830;2023-08-06T14:14:23;27.20;72.00
44435;DHT22;30138;20.964;105.830;2023-08-06T14:19:31;27.10;75.60
44435;DHT22;30138;20.964;105.830;2023-08-06T14:24:39;27.00;69.70
44435;DHT22;30138;20.964;105.830;2023-08-06T14:29:48;26.90;74.20
44435;DHT22;30138;20.964;105.830;2023-08-06T14:34:55;26.90;68.20
44435;DHT22;30138;20.964;105.830;2023-08-06T14:40:02;26.80;73.70
44435;DHT22;30138;20.964;105.830;2023-08-06T14:45:13;26.80;67.40
44435;DHT22;30138;20.964;105.830;2023-08-06T14:50:20;26.60;72.50
44435;DHT22;30138;20.964;105.830;2023-08-06T14:55:28;26.60;65.20
44435;DHT22;30138;20.964;105.830;2023-08-06T15:00:37;26.50;70.90
44435;DHT22;30138;20.964;105.830;2023-08-06T15:05:50;26.40;67.70
44435;DHT22;30138;20.964;105.830;2023-08-06T15:10:58;26.50;77.40
44435;DHT22;30138;20.964;105.830;2023-08-06T15:16:08;26.50;70.80
44435;DHT22;30138;20.964;105.830;2023-08-06T15:21:16;26.50;75.80
44435;DHT22;30138;20.964;105.830;2023-08-06T15:26:24;26.50;70.20
44435;DHT22;30138;20.964;105.830;2023-08-06T15:31:38;26.50;75.10
44435;DHT22;30138;20.964;105.830;2023-08-06T15:36:45;26.40;69.60
44435;DHT22;30138;20.964;105.830;2023-08-06T15:41:55;26.50;73.20
44435;DHT22;30138;20.964;105.830;2023-08-06T15:47:03;26.40;68.60
44435;DHT22;30138;20.964;105.830;2023-08-06T15:52:12;26.40;71.50
44435;DHT22;30138;20.964;105.830;2023-08-06T15:57:22;26.40;68.00
44435;DHT22;30138;20.964;105.830;2023-08-06T16:02:32;26.40;70.00
44435;DHT22;30138;20.964;105.830;2023-08-06T16:07:38;26.40;67.40
44435;DHT22;30138;20.964;105.830;2023-08-06T16:12:45;26.40;68.80
44435;DHT22;30138;20.964;105.830;2023-08-06T16:17:54;26.40;67.10
44435;DHT22;30138;20.964;105.830;2023-08-06T16:23:01;26.40;67.80
44435;DHT22;30138;20.964;105.830;2023-08-06T16:28:08;26.40;66.90
44435;DHT22;30138;20.964;105.830;2023-08-06T16:33:17;26.40;66.70
44435;DHT22;30138;20.964;105.830;2023-08-06T16:38:25;26.30;66.80
44435;DHT22;30138;20.964;105.830;2023-08-06T16:43:32;26.40;65.90
44435;DHT22;30138;20.964;105.830;2023-08-06T16:48:45;26.30;66.80
44435;DHT22;30138;20.964;105.830;2023-08-06T16:53:52;26.30;65.10
44435;DHT22;30138;20.964;105.830;2023-08-06T16:59:00;26.30;67.10
44435;DHT22;30138;20.964;105.830;2023-08-06T17:04:09;26.30;64.60
44435;DHT22;30138;20.964;105.830;2023-08-06T17:09:17;26.20;67.30
44435;DHT22;30138;20.964;105.830;2023-08-06T17:14:25;26.20;63.90
44435;DHT22;30138;20.964;105.830;2023-08-06T17:19:35;26.30;77.90
44435;DHT22;30138;20.964;105.830;2023-08-06T17:24:42;26.30;76.70
44435;DHT22;30138;20.964;105.830;2023-08-06T17:29:49;26.40;77.40
44435;DHT22;30138;20.964;105.830;2023-08-06T17:34:58;26.30;69.70
44435;DHT22;30138;20.964;105.830;2023-08-06T17:40:06;26.30;73.00
44435;DHT22;30138;20.964;105.830;2023-08-06T17:45:14;26.30;66.20
44435;DHT22;30138;20.964;105.830;2023-08-06T17:50:23;26.30;70.60
44435;DHT22;30138;20.964;105.830;2023-08-06T17:55:31;26.20;64.20
44435;DHT22;30138;20.964;105.830;2023-08-06T18:00:38;26.20;69.80
44435;DHT22;30138;20.964;105.830;2023-08-06T18:05:54;26.10;66.00
44435;DHT22;30138;20.964;105.830;2023-08-06T18:11:02;26.30;69.20
44435;DHT22;30138;20.964;105.830;2023-08-06T18:16:09;26.50;71.30
44435;DHT22;30138;20.964;105.830;2023-08-06T18:21:18;26.70;73.20
44435;DHT22;30138;20.964;105.830;2023-08-06T18:26:25;26.80;74.50
44435;DHT22;30138;20.964;105.830;2023-08-06T18:31:33;27.00;75.80
44435;DHT22;30138;20.964;105.830;2023-08-06T18:36:42;27.10;77.00
44435;DHT22;30138;20.964;105.830;2023-08-06T18:41:49;27.20;77.90
44435;DHT22;30138;20.964;105.830;2023-08-06T18:46:56;27.40;78.90
44435;DHT22;30138;20.964;105.830;2023-08-06T18:52:05;27.50;79.50
44435;DHT22;30138;20.964;105.830;2023-08-06T18:57:13;27.50;80.60
44435;DHT22;30138;20.964;105.830;2023-08-06T19:02:20;27.60;81.40
44435;DHT22;30138;20.964;105.830;2023-08-06T19:07:29;27.70;82.20
44435;DHT22;30138;20.964;105.830;2023-08-06T19:12:37;27.80;83.10
44435;DHT22;30138;20.964;105.830;2023-08-06T19:17:44;27.80;84.70
44435;DHT22;30138;20.964;105.830;2023-08-06T19:22:53;27.90;85.20
44435;DHT22;30138;20.964;105.830;2023-08-06T19:28:00;27.90;85.50
44435;DHT22;30138;20.964;105.830;2023-08-06T19:33:07;27.90;85.80
44435;DHT22;30138;20.964;105.830;2023-08-06T19:38:18;28.00;86.20
44435;DHT22;30138;20.964;105.830;2023-08-06T19:43:26;28.00;86.50
44435;DHT22;30138;20.964;105.830;2023-08-06T19:48:33;28.00;86.90
44435;DHT22;30138;20.964;105.830;2023-08-06T19:53:42;28.00;87.20
44435;DHT22;30138;20.964;105.830;2023-08-06T19:58:51;28.10;87.40
44435;DHT22;30138;20.964;105.830;2023-08-06T20:03:58;28.10;87.70
44435;DHT22;30138;20.964;105.830;2023-08-06T20:09:07;28.10;88.10
44435;DHT22;30138;20.964;105.830;2023-08-06T20:14:14;28.10;88.50
44435;DHT22;30138;20.964;105.830;2023-08-06T20:19:21;28.10;88.90
44435;DHT22;30138;20.964;105.830;2023-08-06T20:24:31;28.10;89.40
44435;DHT22;30138;20.964;105.830;2023-08-06T20:29:38;28.20;89.90
44435;DHT22;30138;20.964;105.830;2023-08-06T20:34:45;28.20;90.10
44435;DHT22;30138;20.964;105.830;2023-08-06T20:39:54;28.20;90.30
44435;DHT22;30138;20.964;105.830;2023-08-06T20:45:00;28.20;90.40
44435;DHT22;30138;20.964;105.830;2023-08-06T20:50:09;28.20;90.50
44435;DHT22;30138;20.964;105.830;2023-08-06T20:55:24;28.20;90.80
44435;DHT22;30138;20.964;105.830;2023-08-06T21:00:32;28.20;90.90
44435;DHT22;30138;20.964;105.830;2023-08-06T21:05:39;28.20;91.00
44435;DHT22;30138;20.964;105.830;2023-08-06T21:10:49;28.20;91.20
44435;DHT22;30138;20.964;105.830;2023-08-06T21:15:57;28.20;91.60
44435;DHT22;30138;20.964;105.830;2023-08-06T21:21:05;28.30;91.50
44435;DHT22;30138;20.964;105.830;2023-08-06T21:26:14;28.30;91.80
44435;DHT22;30138;20.964;105.830;2023-08-06T21:31:21;28.30;91.90
44435;DHT22;30138;20.964;105.830;2023-08-06T21:36:30;28.30;92.10
44435;DHT22;30138;20.964;105.830;2023-08-06T21:41:39;28.30;92.20
44435;DHT22;30138;20.964;105.830;2023-08-06T21:46:46;28.30;92.40
44435;DHT22;30138;20.964;105.830;2023-08-06T21:51:54;28.30;92.50
44435;DHT22;30138;20.964;105.830;2023-08-06T21:57:03;28.30;92.70
44435;DHT22;30138;20.964;105.830;2023-08-06T22:02:11;28.30;92.80
44435;DHT22;30138;20.964;105.830;2023-08-06T22:07:19;28.30;93.00
44435;DHT22;30138;20.964;105.830;2023-08-06T22:12:30;28.30;93.10
44435;DHT22;30138;20.964;105.830;2023-08-06T22:17:37;28.30;93.30
44435;DHT22;30138;20.964;105.830;2023-08-06T22:22:45;28.30;93.40
44435;DHT22;30138;20.964;105.830;2023-08-06T22:27:54;28.40;93.60
44435;DHT22;30138;20.964;105.830;2023-08-06T22:33:01;28.40;93.80
44435;DHT22;30138;20.964;105.830;2023-08-06T22:38:09;28.40;93.90
44435;DHT22;30138;20.964;105.830;2023-08-06T22:43:17;28.40;94.10
44435;DHT22;30138;20.964;105.830;2023-08-06T22:48:24;28.40;94.20
44435;DHT22;30138;20.964;105.830;2023-08-06T22:53:32;28.40;94.40
44435;DHT22;30138;20.964;105.830;2023-08-06T22:58:40;28.40;94.50
44435;DHT22;30138;20.964;105.830;2023-08-06T23:03:50;28.40;94.60
44435;DHT22;30138;20.964;105.830;2023-08-06T23:08:57;28.40;94.80
44435;DHT22;30138;20.964;105.830;2023-08-06T23:14:05;28.40;94.90
44435;DHT22;30138;20.964;105.830;2023-08-06T23:19:12;28.40;95.00
44435;DHT22;30138;20.964;105.830;2023-08-06T23:24:19;28.40;95.20
44435;DHT22;30138;20.964;105.830;2023-08-06T23:29:32;28.40;95.20
44435;DHT22;30138;20.964;105.830;2023-08-06T23:34:40;28.40;95.40
44435;DHT22;30138;20.964;105.830;2023-08-06T23:39:47;28.40;95.60
44435;DHT22;30138;20.964;105.830;2023-08-06T23:44:59;28.40;95.70
44435;DHT22;30138;20.964;105.830;2023-08-06T23:50:07;28.50;95.90
44435;DHT22;30138;20.964;105.830;2023-08-06T23:55:14;28.50;96.00
